Goshen, CA

02:21 PDT le 28 Mars 2015 (GMT -0700)
Visalia Municipal | | Change Station
CLOSE
Current Station
Aéroport
Location: Visalia,
Altitude: 292 ft
Stations météo à proximité

Alt. 292 ft 36.32 °N, 119.39 °W | Updated 6 minutes ago

Ciel dégagé
Ciel dégagé
61 ° F
Paraît 61 ° F
N
8
Vent Variable Vent de NO

Aujourd'hui
Haut(e) -- | Bas -- ° F
--% Risque de précip.
Hier
Haut(e) -- | Bas -- ° F
Precip. -- pouce
6:49 AM 7:16 PM
Premier quartier, 60% visible
Pression 30.09 pouce
Visibilité 10.0 Miles terrestres
Nuages Ciel dégagé
Point de rosée 48 ° F
Humidité 63%
Précipitations 0.00 pouce
Profondeur de la couche neigeuse Non disponible.
UV 0 sur 12
Pollen 10.00 sur 12
Qualité de l'air Non disponible.
Flu Activity Non disponible.
METAR KVIS 280915Z AUTO 32007KT 10SM CLR 16/09 A3009 RMK AO1

More Conditions Fewer Conditions

Pression 30.09 pouce
Visibilité 10.0 Miles terrestres
Nuages Ciel dégagé
Point de rosée 48 ° F
Humidité 63%
Précipitations 0.00 pouce
Profondeur de la couche neigeuse Non disponible.
UV 0 sur 12
Pollen 10.00 sur 12
Qualité de l'air Non disponible.
Flu Activity Non disponible.
METAR KVIS 280915Z AUTO 32007KT 10SM CLR 16/09 A3009 RMK AO1

More Conditions Fewer Conditions

10-Day Weather Forecast

Almanac

Astronomie

Mar. 28, 2015 Lever Coucher
Temps réel
Crépuscule civil
Crépuscule nautique
Crépuscule astronomique
Lune
Durée de lumière visible
Longueur du jour
Tomorrow will be .
, % of the Moon is Illuminated

Extrêmes aujourd'hui

State Highs State Lows

Community

WunderPhotos

Upload Photos

1,808,939 Photos téléchargées !

WunderBlogs® & News

Nearby

Qualité de l'air

  Qualité de l'air Indice de la qualité de l'air Polluant
Not available.

Épaisseur de neige

Station Depth Altitude

Activité sismique

Ville Distance Mag. Time & Date
Minimum magnitude displayed is 2.5.

Températures des eaux côtières

Lieu Température

Stations

Stations météo à proximité

Emplacement de la station Température Refroidissement éolien Point de rosée Humidité Vent Precip. Alt. Mise à jour Type